sensor_id;sensor_type;location;lat;lon;timestamp;P1;durP1;ratioP1;P2;durP2;ratioP2
40320;SDS011;26027;51.454;6.628;2022-07-22T00:00:41;0.90;;;0.90;;
40320;SDS011;26027;51.454;6.628;2022-07-22T00:03:07;1.20;;;1.20;;
40320;SDS011;26027;51.454;6.628;2022-07-22T00:05:33;0.85;;;0.85;;
40320;SDS011;26027;51.454;6.628;2022-07-22T00:07:59;1.10;;;1.10;;
40320;SDS011;26027;51.454;6.628;2022-07-22T00:10:25;1.10;;;1.10;;
40320;SDS011;26027;51.454;6.628;2022-07-22T00:12:51;1.02;;;1.02;;
40320;SDS011;26027;51.454;6.628;2022-07-22T00:15:17;0.95;;;0.95;;
40320;SDS011;26027;51.454;6.628;2022-07-22T00:17:43;1.10;;;1.10;;
40320;SDS011;26027;51.454;6.628;2022-07-22T00:20:09;0.90;;;0.90;;
40320;SDS011;26027;51.454;6.628;2022-07-22T00:22:35;1.00;;;1.00;;
40320;SDS011;26027;51.454;6.628;2022-07-22T00:25:02;1.10;;;1.10;;
40320;SDS011;26027;51.454;6.628;2022-07-22T00:27:28;1.20;;;1.20;;
40320;SDS011;26027;51.454;6.628;2022-07-22T00:29:54;1.27;;;1.27;;
40320;SDS011;26027;51.454;6.628;2022-07-22T00:32:20;0.80;;;0.80;;
40320;SDS011;26027;51.454;6.628;2022-07-22T00:34:46;0.90;;;0.90;;
40320;SDS011;26027;51.454;6.628;2022-07-22T00:37:12;1.05;;;1.05;;
40320;SDS011;26027;51.454;6.628;2022-07-22T00:39:38;1.00;;;1.00;;
40320;SDS011;26027;51.454;6.628;2022-07-22T00:42:04;1.10;;;1.10;;
40320;SDS011;26027;51.454;6.628;2022-07-22T00:44:30;0.80;;;0.80;;
40320;SDS011;26027;51.454;6.628;2022-07-22T00:46:56;1.15;;;1.15;;
40320;SDS011;26027;51.454;6.628;2022-07-22T00:49:22;1.10;;;1.10;;
40320;SDS011;26027;51.454;6.628;2022-07-22T00:51:48;1.13;;;1.13;;
40320;SDS011;26027;51.454;6.628;2022-07-22T00:54:14;0.98;;;0.98;;
40320;SDS011;26027;51.454;6.628;2022-07-22T00:56:41;0.80;;;0.80;;
40320;SDS011;26027;51.454;6.628;2022-07-22T00:59:09;1.00;;;1.00;;
40320;SDS011;26027;51.454;6.628;2022-07-22T01:01:35;0.80;;;0.80;;
40320;SDS011;26027;51.454;6.628;2022-07-22T01:04:01;1.00;;;1.00;;
40320;SDS011;26027;51.454;6.628;2022-07-22T01:06:28;0.75;;;0.75;;
40320;SDS011;26027;51.454;6.628;2022-07-22T01:08:55;0.90;;;0.90;;
40320;SDS011;26027;51.454;6.628;2022-07-22T01:11:21;1.00;;;1.00;;
40320;SDS011;26027;51.454;6.628;2022-07-22T01:13:47;0.80;;;0.80;;
40320;SDS011;26027;51.454;6.628;2022-07-22T01:16:14;0.95;;;0.95;;
40320;SDS011;26027;51.454;6.628;2022-07-22T01:18:40;0.80;;;0.80;;
40320;SDS011;26027;51.454;6.628;2022-07-22T01:21:06;1.00;;;1.00;;
40320;SDS011;26027;51.454;6.628;2022-07-22T01:23:33;0.95;;;0.95;;
40320;SDS011;26027;51.454;6.628;2022-07-22T01:25:59;1.10;;;1.10;;
40320;SDS011;26027;51.454;6.628;2022-07-22T01:28:25;1.15;;;1.15;;
40320;SDS011;26027;51.454;6.628;2022-07-22T01:30:52;0.98;;;0.98;;
40320;SDS011;26027;51.454;6.628;2022-07-22T01:33:18;0.90;;;0.90;;
40320;SDS011;26027;51.454;6.628;2022-07-22T01:35:44;0.90;;;0.90;;
40320;SDS011;26027;51.454;6.628;2022-07-22T01:38:11;1.00;;;1.00;;
40320;SDS011;26027;51.454;6.628;2022-07-22T01:40:37;0.82;;;0.82;;
40320;SDS011;26027;51.454;6.628;2022-07-22T01:43:04;1.00;;;1.00;;
40320;SDS011;26027;51.454;6.628;2022-07-22T01:45:30;0.90;;;0.90;;
40320;SDS011;26027;51.454;6.628;2022-07-22T01:47:56;0.88;;;0.88;;
40320;SDS011;26027;51.454;6.628;2022-07-22T01:50:22;0.80;;;0.80;;
40320;SDS011;26027;51.454;6.628;2022-07-22T01:52:48;0.90;;;0.90;;
40320;SDS011;26027;51.454;6.628;2022-07-22T01:55:15;0.85;;;0.85;;
40320;SDS011;26027;51.454;6.628;2022-07-22T01:57:41;0.80;;;0.80;;
40320;SDS011;26027;51.454;6.628;2022-07-22T02:00:07;0.93;;;0.93;;
40320;SDS011;26027;51.454;6.628;2022-07-22T02:02:34;0.85;;;0.85;;
40320;SDS011;26027;51.454;6.628;2022-07-22T02:05:01;1.02;;;1.02;;
40320;SDS011;26027;51.454;6.628;2022-07-22T02:07:27;0.90;;;0.90;;
40320;SDS011;26027;51.454;6.628;2022-07-22T02:09:53;1.00;;;1.00;;
40320;SDS011;26027;51.454;6.628;2022-07-22T02:12:19;0.93;;;0.93;;
40320;SDS011;26027;51.454;6.628;2022-07-22T02:14:45;0.80;;;0.80;;
40320;SDS011;26027;51.454;6.628;2022-07-22T02:17:11;1.10;;;1.10;;
40320;SDS011;26027;51.454;6.628;2022-07-22T02:19:38;0.85;;;0.85;;
40320;SDS011;26027;51.454;6.628;2022-07-22T02:22:04;0.88;;;0.88;;
40320;SDS011;26027;51.454;6.628;2022-07-22T02:24:30;0.90;;;0.90;;
40320;SDS011;26027;51.454;6.628;2022-07-22T02:26:56;0.80;;;0.80;;
40320;SDS011;26027;51.454;6.628;2022-07-22T02:29:22;0.95;;;0.95;;
40320;SDS011;26027;51.454;6.628;2022-07-22T02:31:48;0.80;;;0.80;;
40320;SDS011;26027;51.454;6.628;2022-07-22T02:34:14;0.80;;;0.80;;
40320;SDS011;26027;51.454;6.628;2022-07-22T02:36:40;0.80;;;0.80;;
40320;SDS011;26027;51.454;6.628;2022-07-22T02:39:06;0.80;;;0.80;;
40320;SDS011;26027;51.454;6.628;2022-07-22T02:41:33;0.88;;;0.88;;
40320;SDS011;26027;51.454;6.628;2022-07-22T02:43:59;0.77;;;0.77;;
40320;SDS011;26027;51.454;6.628;2022-07-22T02:46:25;0.85;;;0.85;;
40320;SDS011;26027;51.454;6.628;2022-07-22T02:48:53;0.88;;;0.88;;
40320;SDS011;26027;51.454;6.628;2022-07-22T02:51:20;0.75;;;0.75;;
40320;SDS011;26027;51.454;6.628;2022-07-22T02:53:46;0.90;;;0.90;;
40320;SDS011;26027;51.454;6.628;2022-07-22T02:56:13;0.90;;;0.90;;
40320;SDS011;26027;51.454;6.628;2022-07-22T02:58:39;0.70;;;0.70;;
40320;SDS011;26027;51.454;6.628;2022-07-22T03:01:06;0.85;;;0.85;;
40320;SDS011;26027;51.454;6.628;2022-07-22T03:03:32;0.85;;;0.85;;
40320;SDS011;26027;51.454;6.628;2022-07-22T03:05:58;0.90;;;0.90;;
40320;SDS011;26027;51.454;6.628;2022-07-22T03:08:24;0.82;;;0.82;;
40320;SDS011;26027;51.454;6.628;2022-07-22T03:10:51;0.80;;;0.80;;
40320;SDS011;26027;51.454;6.628;2022-07-22T03:13:17;0.80;;;0.80;;
40320;SDS011;26027;51.454;6.628;2022-07-22T03:15:43;0.85;;;0.85;;
40320;SDS011;26027;51.454;6.628;2022-07-22T03:18:09;0.73;;;0.73;;
40320;SDS011;26027;51.454;6.628;2022-07-22T03:20:35;0.90;;;0.90;;
40320;SDS011;26027;51.454;6.628;2022-07-22T03:23:01;0.80;;;0.80;;
40320;SDS011;26027;51.454;6.628;2022-07-22T03:25:27;0.60;;;0.60;;
40320;SDS011;26027;51.454;6.628;2022-07-22T03:27:55;0.80;;;0.80;;
40320;SDS011;26027;51.454;6.628;2022-07-22T03:30:21;0.80;;;0.80;;
40320;SDS011;26027;51.454;6.628;2022-07-22T03:32:47;0.77;;;0.77;;
40320;SDS011;26027;51.454;6.628;2022-07-22T03:35:14;0.90;;;0.90;;
40320;SDS011;26027;51.454;6.628;2022-07-22T03:37:40;0.90;;;0.90;;
40320;SDS011;26027;51.454;6.628;2022-07-22T03:40:06;0.73;;;0.73;;
40320;SDS011;26027;51.454;6.628;2022-07-22T03:42:32;0.90;;;0.90;;
40320;SDS011;26027;51.454;6.628;2022-07-22T03:44:58;0.52;;;0.52;;
40320;SDS011;26027;51.454;6.628;2022-07-22T03:47:25;0.70;;;0.70;;
40320;SDS011;26027;51.454;6.628;2022-07-22T03:49:51;0.80;;;0.80;;
40320;SDS011;26027;51.454;6.628;2022-07-22T03:52:17;0.93;;;0.93;;
40320;SDS011;26027;51.454;6.628;2022-07-22T03:54:43;1.00;;;1.00;;
40320;SDS011;26027;51.454;6.628;2022-07-22T03:57:09;0.88;;;0.88;;
40320;SDS011;26027;51.454;6.628;2022-07-22T03:59:36;1.00;;;1.00;;
40320;SDS011;26027;51.454;6.628;2022-07-22T04:02:02;0.77;;;0.77;;
40320;SDS011;26027;51.454;6.628;2022-07-22T04:04:28;0.70;;;0.70;;
40320;SDS011;26027;51.454;6.628;2022-07-22T04:06:54;0.68;;;0.68;;
40320;SDS011;26027;51.454;6.628;2022-07-22T04:09:20;0.80;;;0.80;;
40320;SDS011;26027;51.454;6.628;2022-07-22T04:11:46;0.80;;;0.80;;
40320;SDS011;26027;51.454;6.628;2022-07-22T04:14:13;0.80;;;0.80;;
40320;SDS011;26027;51.454;6.628;2022-07-22T04:16:39;0.70;;;0.70;;
40320;SDS011;26027;51.454;6.628;2022-07-22T04:19:05;0.82;;;0.82;;
40320;SDS011;26027;51.454;6.628;2022-07-22T04:21:31;1.48;;;1.10;;
40320;SDS011;26027;51.454;6.628;2022-07-22T04:23:57;1.83;;;1.00;;
40320;SDS011;26027;51.454;6.628;2022-07-22T04:26:23;0.88;;;0.88;;
40320;SDS011;26027;51.454;6.628;2022-07-22T04:28:49;2.03;;;1.10;;
40320;SDS011;26027;51.454;6.628;2022-07-22T04:31:15;3.60;;;1.30;;
40320;SDS011;26027;51.454;6.628;2022-07-22T04:33:41;3.47;;;1.10;;
40320;SDS011;26027;51.454;6.628;2022-07-22T04:36:07;1.95;;;1.15;;
40320;SDS011;26027;51.454;6.628;2022-07-22T04:38:33;3.15;;;1.30;;
40320;SDS011;26027;51.454;6.628;2022-07-22T04:40:59;3.10;;;1.42;;
40320;SDS011;26027;51.454;6.628;2022-07-22T04:43:25;4.10;;;2.03;;
40320;SDS011;26027;51.454;6.628;2022-07-22T04:45:51;2.95;;;1.45;;
40320;SDS011;26027;51.454;6.628;2022-07-22T04:48:17;2.38;;;1.40;;
40320;SDS011;26027;51.454;6.628;2022-07-22T04:50:43;4.63;;;1.48;;
40320;SDS011;26027;51.454;6.628;2022-07-22T04:53:09;4.32;;;1.73;;
40320;SDS011;26027;51.454;6.628;2022-07-22T04:55:35;3.53;;;1.40;;
40320;SDS011;26027;51.454;6.628;2022-07-22T04:58:01;4.97;;;1.83;;
40320;SDS011;26027;51.454;6.628;2022-07-22T05:00:27;2.47;;;1.45;;
40320;SDS011;26027;51.454;6.628;2022-07-22T05:02:53;3.38;;;1.60;;
40320;SDS011;26027;51.454;6.628;2022-07-22T05:05:20;3.60;;;1.60;;
40320;SDS011;26027;51.454;6.628;2022-07-22T05:07:46;3.67;;;2.10;;
40320;SDS011;26027;51.454;6.628;2022-07-22T05:10:12;5.00;;;1.98;;
40320;SDS011;26027;51.454;6.628;2022-07-22T05:12:38;3.60;;;1.67;;
40320;SDS011;26027;51.454;6.628;2022-07-22T05:15:04;4.28;;;1.88;;
40320;SDS011;26027;51.454;6.628;2022-07-22T05:17:30;5.50;;;2.30;;
40320;SDS011;26027;51.454;6.628;2022-07-22T05:19:56;3.85;;;1.70;;
40320;SDS011;26027;51.454;6.628;2022-07-22T05:22:22;5.05;;;1.92;;
40320;SDS011;26027;51.454;6.628;2022-07-22T05:24:48;5.40;;;2.20;;
40320;SDS011;26027;51.454;6.628;2022-07-22T05:27:14;2.58;;;1.73;;
40320;SDS011;26027;51.454;6.628;2022-07-22T05:29:40;2.67;;;1.60;;
40320;SDS011;26027;51.454;6.628;2022-07-22T05:32:06;6.15;;;1.88;;
40320;SDS011;26027;51.454;6.628;2022-07-22T05:34:32;5.18;;;1.83;;
40320;SDS011;26027;51.454;6.628;2022-07-22T05:36:58;3.40;;;1.70;;
40320;SDS011;26027;51.454;6.628;2022-07-22T05:39:24;3.35;;;1.40;;
40320;SDS011;26027;51.454;6.628;2022-07-22T05:41:50;5.40;;;1.92;;
40320;SDS011;26027;51.454;6.628;2022-07-22T05:44:16;3.42;;;1.80;;
40320;SDS011;26027;51.454;6.628;2022-07-22T05:46:42;4.30;;;2.00;;
40320;SDS011;26027;51.454;6.628;2022-07-22T05:49:08;4.95;;;2.10;;
40320;SDS011;26027;51.454;6.628;2022-07-22T05:51:34;3.92;;;1.88;;
40320;SDS011;26027;51.454;6.628;2022-07-22T05:54:00;5.10;;;2.03;;
40320;SDS011;26027;51.454;6.628;2022-07-22T05:56:30;4.57;;;1.80;;
40320;SDS011;26027;51.454;6.628;2022-07-22T05:58:56;5.00;;;1.98;;
40320;SDS011;26027;51.454;6.628;2022-07-22T06:01:22;4.20;;;1.80;;
40320;SDS011;26027;51.454;6.628;2022-07-22T06:03:48;5.28;;;2.10;;
40320;SDS011;26027;51.454;6.628;2022-07-22T06:06:15;3.92;;;1.63;;
40320;SDS011;26027;51.454;6.628;2022-07-22T06:08:41;3.88;;;1.83;;
40320;SDS011;26027;51.454;6.628;2022-07-22T06:11:07;4.63;;;1.77;;
40320;SDS011;26027;51.454;6.628;2022-07-22T06:13:33;5.20;;;1.83;;
40320;SDS011;26027;51.454;6.628;2022-07-22T06:15:59;4.72;;;1.88;;
40320;SDS011;26027;51.454;6.628;2022-07-22T06:18:25;4.70;;;1.70;;
40320;SDS011;26027;51.454;6.628;2022-07-22T06:20:51;4.97;;;1.83;;
40320;SDS011;26027;51.454;6.628;2022-07-22T06:23:17;3.13;;;1.45;;
40320;SDS011;26027;51.454;6.628;2022-07-22T06:25:44;4.80;;;1.90;;
40320;SDS011;26027;51.454;6.628;2022-07-22T06:28:10;5.43;;;2.33;;
40320;SDS011;26027;51.454;6.628;2022-07-22T06:30:36;3.97;;;1.80;;
40320;SDS011;26027;51.454;6.628;2022-07-22T06:33:04;4.63;;;1.60;;
40320;SDS011;26027;51.454;6.628;2022-07-22T06:35:30;2.97;;;1.50;;
40320;SDS011;26027;51.454;6.628;2022-07-22T06:37:56;2.22;;;1.23;;
40320;SDS011;26027;51.454;6.628;2022-07-22T06:40:22;4.75;;;1.38;;
40320;SDS011;26027;51.454;6.628;2022-07-22T06:42:48;4.85;;;1.73;;
40320;SDS011;26027;51.454;6.628;2022-07-22T06:45:14;3.28;;;1.42;;
40320;SDS011;26027;51.454;6.628;2022-07-22T06:47:40;2.70;;;1.30;;
40320;SDS011;26027;51.454;6.628;2022-07-22T06:50:07;4.78;;;1.60;;
40320;SDS011;26027;51.454;6.628;2022-07-22T06:52:34;4.22;;;1.70;;
40320;SDS011;26027;51.454;6.628;2022-07-22T06:55:03;3.05;;;1.30;;
40320;SDS011;26027;51.454;6.628;2022-07-22T06:57:29;3.20;;;1.60;;
40320;SDS011;26027;51.454;6.628;2022-07-22T06:59:55;5.57;;;1.60;;
40320;SDS011;26027;51.454;6.628;2022-07-22T07:02:21;3.50;;;1.60;;
40320;SDS011;26027;51.454;6.628;2022-07-22T07:04:47;3.33;;;1.52;;
40320;SDS011;26027;51.454;6.628;2022-07-22T07:07:13;3.63;;;1.63;;
40320;SDS011;26027;51.454;6.628;2022-07-22T07:09:39;3.75;;;1.70;;
40320;SDS011;26027;51.454;6.628;2022-07-22T07:12:06;2.72;;;1.40;;
40320;SDS011;26027;51.454;6.628;2022-07-22T07:14:32;5.38;;;1.50;;
40320;SDS011;26027;51.454;6.628;2022-07-22T07:16:58;3.85;;;1.40;;
40320;SDS011;26027;51.454;6.628;2022-07-22T07:19:24;4.18;;;1.35;;
40320;SDS011;26027;51.454;6.628;2022-07-22T07:21:50;3.25;;;1.50;;
40320;SDS011;26027;51.454;6.628;2022-07-22T07:24:16;2.67;;;1.48;;
40320;SDS011;26027;51.454;6.628;2022-07-22T07:26:42;2.70;;;1.17;;
40320;SDS011;26027;51.454;6.628;2022-07-22T07:29:08;3.00;;;1.50;;
40320;SDS011;26027;51.454;6.628;2022-07-22T07:31:34;3.75;;;1.50;;
40320;SDS011;26027;51.454;6.628;2022-07-22T07:34:00;3.15;;;1.50;;
40320;SDS011;26027;51.454;6.628;2022-07-22T07:36:26;3.90;;;1.50;;
40320;SDS011;26027;51.454;6.628;2022-07-22T07:38:52;3.63;;;1.65;;
40320;SDS011;26027;51.454;6.628;2022-07-22T07:41:18;3.17;;;1.80;;
40320;SDS011;26027;51.454;6.628;2022-07-22T07:43:44;1.70;;;1.40;;
40320;SDS011;26027;51.454;6.628;2022-07-22T07:46:10;2.90;;;1.60;;
40320;SDS011;26027;51.454;6.628;2022-07-22T07:48:36;2.95;;;1.30;;
40320;SDS011;26027;51.454;6.628;2022-07-22T07:51:02;2.58;;;1.63;;
40320;SDS011;26027;51.454;6.628;2022-07-22T07:53:28;2.80;;;1.27;;
40320;SDS011;26027;51.454;6.628;2022-07-22T07:55:54;4.28;;;1.55;;
40320;SDS011;26027;51.454;6.628;2022-07-22T07:58:20;2.75;;;1.38;;
40320;SDS011;26027;51.454;6.628;2022-07-22T08:00:46;2.95;;;1.50;;
40320;SDS011;26027;51.454;6.628;2022-07-22T08:03:12;1.95;;;1.38;;
40320;SDS011;26027;51.454;6.628;2022-07-22T08:05:38;4.60;;;1.30;;
40320;SDS011;26027;51.454;6.628;2022-07-22T08:08:04;4.40;;;1.90;;
40320;SDS011;26027;51.454;6.628;2022-07-22T08:10:31;2.75;;;1.50;;
40320;SDS011;26027;51.454;6.628;2022-07-22T08:12:57;1.95;;;1.35;;
40320;SDS011;26027;51.454;6.628;2022-07-22T08:15:24;2.80;;;1.80;;
40320;SDS011;26027;51.454;6.628;2022-07-22T08:17:51;3.35;;;1.50;;
40320;SDS011;26027;51.454;6.628;2022-07-22T08:20:17;1.75;;;1.40;;
40320;SDS011;26027;51.454;6.628;2022-07-22T08:22:43;2.17;;;1.63;;
40320;SDS011;26027;51.454;6.628;2022-07-22T08:25:09;1.98;;;1.50;;
40320;SDS011;26027;51.454;6.628;2022-07-22T08:27:35;2.55;;;1.50;;
40320;SDS011;26027;51.454;6.628;2022-07-22T08:30:02;3.42;;;1.58;;
40320;SDS011;26027;51.454;6.628;2022-07-22T08:32:30;1.88;;;1.70;;
40320;SDS011;26027;51.454;6.628;2022-07-22T08:34:56;2.78;;;1.63;;
40320;SDS011;26027;51.454;6.628;2022-07-22T08:37:22;2.67;;;1.58;;
40320;SDS011;26027;51.454;6.628;2022-07-22T08:39:49;2.38;;;1.20;;
40320;SDS011;26027;51.454;6.628;2022-07-22T08:42:16;2.13;;;1.33;;
40320;SDS011;26027;51.454;6.628;2022-07-22T08:44:43;3.35;;;1.35;;
40320;SDS011;26027;51.454;6.628;2022-07-22T08:47:09;2.88;;;1.30;;
40320;SDS011;26027;51.454;6.628;2022-07-22T08:49:35;3.67;;;1.50;;
40320;SDS011;26027;51.454;6.628;2022-07-22T08:52:01;2.30;;;1.45;;
40320;SDS011;26027;51.454;6.628;2022-07-22T08:54:27;3.47;;;1.60;;
40320;SDS011;26027;51.454;6.628;2022-07-22T08:56:53;1.67;;;1.38;;
40320;SDS011;26027;51.454;6.628;2022-07-22T08:59:19;2.45;;;1.67;;
40320;SDS011;26027;51.454;6.628;2022-07-22T09:02:02;1.38;;;1.20;;
40320;SDS011;26027;51.454;6.628;2022-07-22T09:04:28;6.32;;;1.40;;
40320;SDS011;26027;51.454;6.628;2022-07-22T09:06:54;4.63;;;1.50;;
40320;SDS011;26027;51.454;6.628;2022-07-22T09:09:29;3.85;;;1.60;;
40320;SDS011;26027;51.454;6.628;2022-07-22T09:12:07;2.65;;;1.30;;
40320;SDS011;26027;51.454;6.628;2022-07-22T09:14:43;2.55;;;1.70;;
40320;SDS011;26027;51.454;6.628;2022-07-22T09:19:58;3.15;;;1.50;;
40320;SDS011;26027;51.454;6.628;2022-07-22T09:22:41;3.88;;;1.33;;
40320;SDS011;26027;51.454;6.628;2022-07-22T09:27:51;2.70;;;1.52;;
40320;SDS011;26027;51.454;6.628;2022-07-22T09:30:19;2.28;;;1.40;;
40320;SDS011;26027;51.454;6.628;2022-07-22T09:32:45;4.53;;;1.88;;
40320;SDS011;26027;51.454;6.628;2022-07-22T09:35:12;3.47;;;1.63;;
40320;SDS011;26027;51.454;6.628;2022-07-22T09:37:46;2.70;;;1.40;;
40320;SDS011;26027;51.454;6.628;2022-07-22T09:40:13;2.70;;;1.60;;
40320;SDS011;26027;51.454;6.628;2022-07-22T09:42:47;2.33;;;1.48;;
40320;SDS011;26027;51.454;6.628;2022-07-22T09:45:13;2.95;;;1.30;;
40320;SDS011;26027;51.454;6.628;2022-07-22T09:47:42;3.42;;;1.90;;
40320;SDS011;26027;51.454;6.628;2022-07-22T09:50:19;3.72;;;1.98;;
40320;SDS011;26027;51.454;6.628;2022-07-22T09:52:46;4.75;;;1.80;;
40320;SDS011;26027;51.454;6.628;2022-07-22T09:55:16;5.60;;;1.98;;
40320;SDS011;26027;51.454;6.628;2022-07-22T09:57:43;5.50;;;1.83;;
40320;SDS011;26027;51.454;6.628;2022-07-22T10:00:09;4.72;;;2.10;;
40320;SDS011;26027;51.454;6.628;2022-07-22T10:02:55;6.60;;;1.70;;
40320;SDS011;26027;51.454;6.628;2022-07-22T10:05:25;3.00;;;1.88;;
40320;SDS011;26027;51.454;6.628;2022-07-22T10:07:52;1.80;;;1.70;;
40320;SDS011;26027;51.454;6.628;2022-07-22T10:10:19;4.70;;;1.85;;
40320;SDS011;26027;51.454;6.628;2022-07-22T10:12:48;4.13;;;1.60;;
40320;SDS011;26027;51.454;6.628;2022-07-22T10:15:14;1.63;;;1.40;;
40320;SDS011;26027;51.454;6.628;2022-07-22T10:17:41;2.05;;;1.75;;
40320;SDS011;26027;51.454;6.628;2022-07-22T10:20:08;2.95;;;1.60;;
40320;SDS011;26027;51.454;6.628;2022-07-22T10:25:07;1.80;;;1.70;;
40320;SDS011;26027;51.454;6.628;2022-07-22T10:30:20;2.55;;;1.55;;
40320;SDS011;26027;51.454;6.628;2022-07-22T10:33:01;1.88;;;1.63;;
40320;SDS011;26027;51.454;6.628;2022-07-22T10:35:27;1.50;;;1.40;;
40320;SDS011;26027;51.454;6.628;2022-07-22T10:37:54;2.30;;;1.40;;
40320;SDS011;26027;51.454;6.628;2022-07-22T10:40:25;4.57;;;1.70;;
40320;SDS011;26027;51.454;6.628;2022-07-22T10:45:24;1.92;;;1.70;;
40320;SDS011;26027;51.454;6.628;2022-07-22T10:47:53;1.92;;;1.33;;
40320;SDS011;26027;51.454;6.628;2022-07-22T10:53:24;1.60;;;1.50;;
40320;SDS011;26027;51.454;6.628;2022-07-22T10:56:05;2.75;;;1.50;;
40320;SDS011;26027;51.454;6.628;2022-07-22T11:01:03;2.05;;;1.50;;
40320;SDS011;26027;51.454;6.628;2022-07-22T11:03:30;4.00;;;1.70;;
40320;SDS011;26027;51.454;6.628;2022-07-22T11:05:56;4.97;;;1.52;;
40320;SDS011;26027;51.454;6.628;2022-07-22T11:08:24;3.85;;;1.55;;
40320;SDS011;26027;51.454;6.628;2022-07-22T11:10:51;3.15;;;1.90;;
40320;SDS011;26027;51.454;6.628;2022-07-22T11:13:30;2.95;;;1.40;;
40320;SDS011;26027;51.454;6.628;2022-07-22T11:15:56;3.63;;;1.50;;
40320;SDS011;26027;51.454;6.628;2022-07-22T11:18:45;3.45;;;1.48;;
40320;SDS011;26027;51.454;6.628;2022-07-22T11:21:12;3.92;;;1.70;;
40320;SDS011;26027;51.454;6.628;2022-07-22T11:23:42;2.92;;;1.50;;
40320;SDS011;26027;51.454;6.628;2022-07-22T11:26:12;1.70;;;1.40;;
40320;SDS011;26027;51.454;6.628;2022-07-22T11:28:43;1.73;;;1.52;;
40320;SDS011;26027;51.454;6.628;2022-07-22T11:31:10;4.47;;;1.90;;
40320;SDS011;26027;51.454;6.628;2022-07-22T11:33:39;3.30;;;1.67;;
40320;SDS011;26027;51.454;6.628;2022-07-22T11:36:06;1.60;;;1.40;;
40320;SDS011;26027;51.454;6.628;2022-07-22T11:38:48;2.53;;;1.67;;
40320;SDS011;26027;51.454;6.628;2022-07-22T11:41:15;3.42;;;1.83;;
40320;SDS011;26027;51.454;6.628;2022-07-22T11:43:42;1.85;;;1.35;;
40320;SDS011;26027;51.454;6.628;2022-07-22T11:46:09;2.47;;;1.50;;
40320;SDS011;26027;51.454;6.628;2022-07-22T11:48:35;1.95;;;1.60;;
40320;SDS011;26027;51.454;6.628;2022-07-22T11:51:02;2.25;;;1.50;;
40320;SDS011;26027;51.454;6.628;2022-07-22T11:53:29;2.47;;;1.42;;
40320;SDS011;26027;51.454;6.628;2022-07-22T11:55:58;3.13;;;1.70;;
40320;SDS011;26027;51.454;6.628;2022-07-22T11:58:45;3.22;;;1.63;;
40320;SDS011;26027;51.454;6.628;2022-07-22T12:01:12;1.77;;;1.48;;
40320;SDS011;26027;51.454;6.628;2022-07-22T12:03:39;3.85;;;1.63;;
40320;SDS011;26027;51.454;6.628;2022-07-22T12:06:07;1.92;;;1.42;;
40320;SDS011;26027;51.454;6.628;2022-07-22T12:08:34;2.90;;;1.58;;
40320;SDS011;26027;51.454;6.628;2022-07-22T12:11:01;2.13;;;1.50;;
40320;SDS011;26027;51.454;6.628;2022-07-22T12:13:28;1.58;;;1.38;;
40320;SDS011;26027;51.454;6.628;2022-07-22T12:15:54;2.92;;;1.40;;
40320;SDS011;26027;51.454;6.628;2022-07-22T12:18:21;1.52;;;1.42;;
40320;SDS011;26027;51.454;6.628;2022-07-22T12:20:48;1.58;;;1.40;;
40320;SDS011;26027;51.454;6.628;2022-07-22T12:23:14;2.25;;;1.40;;
40320;SDS011;26027;51.454;6.628;2022-07-22T12:25:56;1.92;;;1.50;;
40320;SDS011;26027;51.454;6.628;2022-07-22T12:28:23;1.77;;;1.50;;
40320;SDS011;26027;51.454;6.628;2022-07-22T12:30:50;3.13;;;1.40;;
40320;SDS011;26027;51.454;6.628;2022-07-22T12:33:17;1.55;;;1.45;;
40320;SDS011;26027;51.454;6.628;2022-07-22T12:35:44;2.55;;;1.70;;
40320;SDS011;26027;51.454;6.628;2022-07-22T12:38:23;1.58;;;1.45;;
40320;SDS011;26027;51.454;6.628;2022-07-22T12:40:49;1.45;;;1.38;;
40320;SDS011;26027;51.454;6.628;2022-07-22T12:43:15;2.30;;;1.50;;
40320;SDS011;26027;51.454;6.628;2022-07-22T12:45:42;1.70;;;1.60;;
40320;SDS011;26027;51.454;6.628;2022-07-22T12:48:08;2.65;;;1.50;;
40320;SDS011;26027;51.454;6.628;2022-07-22T12:50:38;2.17;;;1.63;;
40320;SDS011;26027;51.454;6.628;2022-07-22T12:53:06;1.50;;;1.33;;
40320;SDS011;26027;51.454;6.628;2022-07-22T12:55:33;2.22;;;1.40;;
40320;SDS011;26027;51.454;6.628;2022-07-22T12:57:59;2.17;;;1.40;;
40320;SDS011;26027;51.454;6.628;2022-07-22T13:00:29;1.55;;;1.40;;
40320;SDS011;26027;51.454;6.628;2022-07-22T13:02:55;1.95;;;1.45;;
40320;SDS011;26027;51.454;6.628;2022-07-22T13:05:22;1.75;;;1.40;;
40320;SDS011;26027;51.454;6.628;2022-07-22T13:07:49;1.58;;;1.48;;
40320;SDS011;26027;51.454;6.628;2022-07-22T13:10:15;1.50;;;1.40;;
40320;SDS011;26027;51.454;6.628;2022-07-22T13:12:41;2.10;;;1.75;;
40320;SDS011;26027;51.454;6.628;2022-07-22T13:15:08;1.40;;;1.30;;
40320;SDS011;26027;51.454;6.628;2022-07-22T13:17:35;1.65;;;1.38;;
40320;SDS011;26027;51.454;6.628;2022-07-22T13:20:01;1.65;;;1.40;;
40320;SDS011;26027;51.454;6.628;2022-07-22T13:22:27;1.70;;;1.40;;
40320;SDS011;26027;51.454;6.628;2022-07-22T13:24:53;1.48;;;1.38;;
40320;SDS011;26027;51.454;6.628;2022-07-22T13:27:19;1.65;;;1.42;;
40320;SDS011;26027;51.454;6.628;2022-07-22T13:29:45;1.73;;;1.63;;
40320;SDS011;26027;51.454;6.628;2022-07-22T13:32:11;1.77;;;1.40;;
40320;SDS011;26027;51.454;6.628;2022-07-22T13:34:37;1.60;;;1.50;;
40320;SDS011;26027;51.454;6.628;2022-07-22T13:37:04;1.60;;;1.50;;
40320;SDS011;26027;51.454;6.628;2022-07-22T13:39:30;1.67;;;1.58;;
40320;SDS011;26027;51.454;6.628;2022-07-22T13:41:56;1.45;;;1.35;;
40320;SDS011;26027;51.454;6.628;2022-07-22T13:44:22;1.50;;;1.35;;
40320;SDS011;26027;51.454;6.628;2022-07-22T13:46:48;1.77;;;1.67;;
40320;SDS011;26027;51.454;6.628;2022-07-22T13:49:14;1.20;;;1.20;;
40320;SDS011;26027;51.454;6.628;2022-07-22T13:51:40;1.63;;;1.52;;
40320;SDS011;26027;51.454;6.628;2022-07-22T13:54:06;1.35;;;1.30;;
40320;SDS011;26027;51.454;6.628;2022-07-22T13:56:32;2.70;;;1.45;;
40320;SDS011;26027;51.454;6.628;2022-07-22T13:58:59;1.50;;;1.40;;
40320;SDS011;26027;51.454;6.628;2022-07-22T14:01:25;1.52;;;1.40;;
40320;SDS011;26027;51.454;6.628;2022-07-22T14:03:52;1.50;;;1.40;;
40320;SDS011;26027;51.454;6.628;2022-07-22T14:06:18;1.60;;;1.50;;
40320;SDS011;26027;51.454;6.628;2022-07-22T14:08:44;1.40;;;1.30;;
40320;SDS011;26027;51.454;6.628;2022-07-22T14:11:10;1.73;;;1.52;;
40320;SDS011;26027;51.454;6.628;2022-07-22T14:13:36;1.50;;;1.40;;
40320;SDS011;26027;51.454;6.628;2022-07-22T14:16:02;1.40;;;1.30;;
40320;SDS011;26027;51.454;6.628;2022-07-22T14:18:47;1.50;;;1.40;;
40320;SDS011;26027;51.454;6.628;2022-07-22T14:21:13;1.40;;;1.30;;
40320;SDS011;26027;51.454;6.628;2022-07-22T14:23:39;1.98;;;1.30;;
40320;SDS011;26027;51.454;6.628;2022-07-22T14:26:05;1.40;;;1.30;;
40320;SDS011;26027;51.454;6.628;2022-07-22T14:28:31;1.75;;;1.40;;
40320;SDS011;26027;51.454;6.628;2022-07-22T14:30:57;1.98;;;1.33;;
40320;SDS011;26027;51.454;6.628;2022-07-22T14:33:23;2.85;;;1.48;;
40320;SDS011;26027;51.454;6.628;2022-07-22T14:35:49;1.50;;;1.40;;
40320;SDS011;26027;51.454;6.628;2022-07-22T14:38:15;1.60;;;1.50;;
40320;SDS011;26027;51.454;6.628;2022-07-22T14:40:43;1.45;;;1.33;;
40320;SDS011;26027;51.454;6.628;2022-07-22T14:43:09;1.45;;;1.35;;
40320;SDS011;26027;51.454;6.628;2022-07-22T14:45:35;1.90;;;1.33;;
40320;SDS011;26027;51.454;6.628;2022-07-22T14:48:01;1.42;;;1.33;;
40320;SDS011;26027;51.454;6.628;2022-07-22T14:50:27;1.55;;;1.45;;
40320;SDS011;26027;51.454;6.628;2022-07-22T14:52:53;1.92;;;1.38;;
40320;SDS011;26027;51.454;6.628;2022-07-22T14:55:19;1.45;;;1.35;;
40320;SDS011;26027;51.454;6.628;2022-07-22T14:57:45;1.50;;;1.40;;
40320;SDS011;26027;51.454;6.628;2022-07-22T15:00:11;1.25;;;1.25;;
40320;SDS011;26027;51.454;6.628;2022-07-22T15:02:37;1.50;;;1.40;;
40320;SDS011;26027;51.454;6.628;2022-07-22T15:05:03;1.35;;;1.25;;